Longreach, Australia
Current Conditions -  °F | °C
As of 8:00 AM on Monday 26 Jan 2015 (Local Time) from YLRE Reporting Station
Clear Clear  
Wind Chill: 84°   Ceiling: Unl
Heat Index: 84°   Visibility: 6mi
Dew Point: 41°   Wind: 6mph
Humidity: 22%   Direction: 220°SW
Pressure: 29.74"   Gusts: NA
Location:  23.44°S, 144.25°E
Report Text: YLRE 252200Z 22005KT CAVOK 29/05 Q1007
Loading
Personal Weather Stations






























Interactive Weather Map New forecast layout! Learn more

10-Day Weather Forecast

Advertisements
Track Severe Weather on mobile